createdAt,value
2018-09-14T00:00:12.973Z,10.00
2018-09-14T00:02:41.658Z,10.00
2018-09-14T00:05:10.126Z,10.00
2018-09-14T00:07:38.960Z,10.00
2018-09-14T00:10:07.867Z,9.90
2018-09-14T00:12:37.580Z,9.80
2018-09-14T00:15:07.882Z,9.80
2018-09-14T00:17:37.079Z,9.90
2018-09-14T00:20:05.655Z,9.90
2018-09-14T00:22:34.462Z,9.80
2018-09-14T00:25:03.380Z,9.70
2018-09-14T00:27:32.714Z,9.60
2018-09-14T00:30:01.193Z,9.50
2018-09-14T00:32:29.915Z,9.50
2018-09-14T00:34:58.538Z,9.50
2018-09-14T00:37:27.024Z,9.40
2018-09-14T00:39:55.595Z,9.50
2018-09-14T00:42:24.191Z,9.60
2018-09-14T00:44:52.716Z,9.60
2018-09-14T00:47:22.570Z,9.50
2018-09-14T00:49:51.099Z,9.40
2018-09-14T00:52:21.361Z,9.40
2018-09-14T00:54:50.191Z,9.40
2018-09-14T00:57:19.391Z,9.50
2018-09-14T00:59:47.981Z,9.50
2018-09-14T01:02:17.051Z,9.40
2018-09-14T01:04:45.494Z,9.40
2018-09-14T01:07:15.355Z,9.40
2018-09-14T01:09:43.902Z,9.40
2018-09-14T01:12:12.290Z,9.30
2018-09-14T01:14:40.749Z,9.30
2018-09-14T01:17:09.258Z,9.30
2018-09-14T01:19:37.714Z,9.20
2018-09-14T01:22:06.478Z,9.20
2018-09-14T01:24:34.917Z,9.10
2018-09-14T01:27:03.589Z,9.00
2018-09-14T01:29:32.570Z,8.90
2018-09-14T01:32:01.392Z,9.10
2018-09-14T01:34:29.916Z,9.10
2018-09-14T01:36:58.248Z,9.00
2018-09-14T01:39:26.993Z,9.00
2018-09-14T01:41:55.346Z,8.90
2018-09-14T01:44:23.927Z,8.80
2018-09-14T01:46:52.379Z,8.70
2018-09-14T01:49:21.670Z,8.80
2018-09-14T01:51:50.088Z,8.90
2018-09-14T01:54:19.600Z,8.80
2018-09-14T01:56:49.620Z,8.70
2018-09-14T01:59:18.155Z,8.70
2018-09-14T02:01:48.824Z,8.70
2018-09-14T02:04:19.816Z,8.60
2018-09-14T02:06:48.350Z,8.60
2018-09-14T02:09:21.804Z,8.60
2018-09-14T02:11:50.493Z,8.60
2018-09-14T02:14:19.290Z,8.50
2018-09-14T02:16:47.730Z,8.50
2018-09-14T02:19:16.216Z,8.50
2018-09-14T02:21:44.995Z,8.50
2018-09-14T02:24:13.520Z,8.60
2018-09-14T02:26:42.302Z,8.60
2018-09-14T02:29:10.931Z,8.50
2018-09-14T02:31:39.691Z,8.40
2018-09-14T02:34:08.331Z,8.40
2018-09-14T02:36:37.765Z,8.40
2018-09-14T02:39:08.480Z,8.50
2018-09-14T02:41:37.140Z,8.50
2018-09-14T02:44:06.334Z,8.50
2018-09-14T02:46:35.342Z,8.60
2018-09-14T02:49:03.731Z,8.60
2018-09-14T02:51:32.177Z,8.60
2018-09-14T02:54:00.668Z,8.70
2018-09-14T02:56:29.305Z,8.70
2018-09-14T02:58:58.435Z,8.70
2018-09-14T03:01:28.291Z,8.70
2018-09-14T03:03:56.564Z,8.70
2018-09-14T03:06:26.171Z,8.60
2018-09-14T03:08:54.926Z,8.60
2018-09-14T03:11:24.108Z,8.50
2018-09-14T03:13:52.786Z,8.50
2018-09-14T03:16:23.092Z,8.50
2018-09-14T03:18:54.924Z,8.50
2018-09-14T03:21:24.695Z,8.50
2018-09-14T03:23:53.603Z,8.40
2018-09-14T03:26:23.152Z,8.40
2018-09-14T03:28:52.040Z,8.40
2018-09-14T03:31:21.876Z,8.30
2018-09-14T03:33:51.034Z,8.30
2018-09-14T03:36:20.177Z,8.30
2018-09-14T03:38:49.242Z,8.30
2018-09-14T03:41:17.598Z,8.30
2018-09-14T03:43:46.102Z,8.20
2018-09-14T03:46:15.589Z,8.20
2018-09-14T03:48:44.400Z,8.20
2018-09-14T03:51:12.750Z,8.10
2018-09-14T03:53:41.233Z,8.10
2018-09-14T03:56:09.905Z,8.10
2018-09-14T03:58:38.314Z,8.10
2018-09-14T04:01:07.124Z,8.10
2018-09-14T04:03:35.577Z,8.10
2018-09-14T04:06:04.285Z,8.00
2018-09-14T04:08:33.335Z,8.00
2018-09-14T04:11:01.855Z,7.90
2018-09-14T04:13:30.423Z,7.70
2018-09-14T04:15:58.898Z,7.70
2018-09-14T04:18:27.766Z,7.60
2018-09-14T04:20:56.207Z,7.60
2018-09-14T04:23:24.747Z,7.60
2018-09-14T04:25:53.681Z,7.60
2018-09-14T04:28:23.369Z,7.50
2018-09-14T04:30:52.884Z,7.40
2018-09-14T04:33:21.397Z,7.40
2018-09-14T04:35:49.850Z,7.30
2018-09-14T04:38:18.404Z,7.30
2018-09-14T04:40:47.055Z,7.30
2018-09-14T04:43:15.916Z,7.30
2018-09-14T04:45:44.650Z,7.30
2018-09-14T04:48:13.760Z,7.40
2018-09-14T04:50:42.797Z,7.30
2018-09-14T04:53:11.570Z,7.30
2018-09-14T04:55:40.184Z,7.40
2018-09-14T04:58:08.979Z,7.40
2018-09-14T05:00:38.366Z,7.50
2018-09-14T05:03:07.737Z,7.60
2018-09-14T05:05:36.720Z,7.60
2018-09-14T05:08:05.357Z,7.60
2018-09-14T05:10:36.063Z,7.60
2018-09-14T05:13:05.323Z,7.60
2018-09-14T05:15:33.916Z,7.60
2018-09-14T05:18:04.890Z,7.60
2018-09-14T05:20:33.608Z,7.50
2018-09-14T05:23:02.410Z,7.50
2018-09-14T05:25:31.397Z,7.60
2018-09-14T05:28:00.044Z,7.80
2018-09-14T05:30:28.928Z,8.00
2018-09-14T05:32:57.582Z,8.20
2018-09-14T05:35:27.601Z,8.40
2018-09-14T05:37:56.121Z,8.50
2018-09-14T05:40:25.022Z,8.70
2018-09-14T05:42:53.701Z,8.80
2018-09-14T05:45:22.220Z,8.80
2018-09-14T05:47:50.876Z,8.70
2018-09-14T05:50:19.905Z,8.80
2018-09-14T05:52:48.788Z,9.20
2018-09-14T05:55:17.308Z,9.40
2018-09-14T05:57:45.644Z,9.60
2018-09-14T06:00:14.023Z,9.90
2018-09-14T06:02:42.488Z,10.10
2018-09-14T06:05:11.138Z,10.10
2018-09-14T06:07:39.668Z,10.40
2018-09-14T06:10:08.350Z,10.50
2018-09-14T06:12:36.846Z,10.50
2018-09-14T06:15:07.278Z,10.70
2018-09-14T06:17:40.025Z,11.00
2018-09-14T06:20:08.487Z,11.30
2018-09-14T06:22:37.141Z,11.50
2018-09-14T06:25:05.686Z,11.70
2018-09-14T06:27:34.739Z,11.80
2018-09-14T06:30:03.672Z,11.90
2018-09-14T06:32:34.872Z,12.20
2018-09-14T06:35:05.275Z,12.70
2018-09-14T06:37:34.178Z,13.00
2018-09-14T06:40:03.409Z,13.40
2018-09-14T06:42:32.610Z,13.50
2018-09-14T06:45:04.048Z,13.70
2018-09-14T06:47:34.387Z,14.00
2018-09-14T06:50:03.039Z,14.40
2018-09-14T06:52:31.478Z,14.90
2018-09-14T06:55:00.071Z,15.70
2018-09-14T06:57:28.588Z,15.80
2018-09-14T06:59:57.384Z,16.00
2018-09-14T07:02:25.950Z,16.60
2018-09-14T07:04:54.658Z,16.90
2018-09-14T07:07:23.659Z,17.00
2018-09-14T07:09:52.148Z,16.60
2018-09-14T07:12:21.544Z,16.60
2018-09-14T07:14:49.944Z,16.60
2018-09-14T07:17:18.295Z,16.90
2018-09-14T07:19:47.668Z,17.40
2018-09-14T07:22:16.851Z,17.50
2018-09-14T07:24:46.294Z,17.70
2018-09-14T07:27:16.394Z,18.00
2018-09-14T07:29:44.848Z,18.00
2018-09-14T07:32:13.659Z,17.60
2018-09-14T07:34:43.389Z,17.10
2018-09-14T07:37:11.993Z,17.40
2018-09-14T07:39:40.581Z,18.30
2018-09-14T07:42:09.061Z,18.30
2018-09-14T07:44:38.349Z,18.90
2018-09-14T07:47:09.094Z,19.80
2018-09-14T07:49:38.687Z,20.20
2018-09-14T07:52:07.581Z,20.10
2018-09-14T07:54:36.648Z,20.00
2018-09-14T07:57:05.193Z,19.70
2018-09-14T07:59:33.697Z,19.70
2018-09-14T08:02:02.392Z,19.70
2018-09-14T08:04:31.625Z,19.70
2018-09-14T08:07:02.270Z,19.60
2018-09-14T08:09:30.819Z,19.50
2018-09-14T08:12:00.200Z,19.80
2018-09-14T08:14:28.760Z,20.10
2018-09-14T08:16:57.354Z,20.60
2018-09-14T08:19:25.907Z,21.20
2018-09-14T08:21:54.880Z,21.30
2018-09-14T08:24:23.356Z,20.40
2018-09-14T08:26:52.445Z,20.80
2018-09-14T08:29:20.846Z,21.00
2018-09-14T08:31:49.640Z,21.00
2018-09-14T08:34:18.854Z,21.90
2018-09-14T08:36:47.356Z,22.70
2018-09-14T08:39:16.449Z,23.00
2018-09-14T08:41:46.933Z,22.30
2018-09-14T08:44:15.618Z,22.50
2018-09-14T08:46:45.832Z,22.90
2018-09-14T08:49:14.279Z,23.20
2018-09-14T08:51:42.967Z,22.70
2018-09-14T08:54:11.483Z,22.90
2018-09-14T08:56:40.698Z,23.40
2018-09-14T08:59:09.245Z,22.90
2018-09-14T09:01:37.851Z,22.50
2018-09-14T09:04:06.453Z,23.10
2018-09-14T09:06:35.080Z,23.70
2018-09-14T09:09:03.848Z,24.10
2018-09-14T09:11:33.844Z,24.40
2018-09-14T09:14:02.510Z,24.00
2018-09-14T09:16:33.102Z,23.80
2018-09-14T09:19:02.056Z,23.50
2018-09-14T09:21:30.800Z,23.70
2018-09-14T09:24:00.275Z,24.20
2018-09-14T09:26:29.716Z,25.00
2018-09-14T09:28:58.605Z,24.80
2018-09-14T09:31:27.562Z,24.70
2018-09-14T09:33:56.861Z,25.20
2018-09-14T09:36:26.495Z,25.40
2018-09-14T09:38:55.158Z,25.40
2018-09-14T09:41:24.632Z,25.00
2018-09-14T09:43:53.281Z,25.60
2018-09-14T09:46:22.562Z,26.30
2018-09-14T09:48:51.192Z,26.00
2018-09-14T09:51:20.013Z,25.90
2018-09-14T09:53:49.534Z,25.90
2018-09-14T09:56:19.286Z,25.90
2018-09-14T09:58:48.712Z,26.00
2018-09-14T10:01:22.637Z,26.60
2018-09-14T10:03:55.325Z,26.10
2018-09-14T10:06:23.922Z,25.80
2018-09-14T10:08:53.473Z,25.70
2018-09-14T10:11:21.922Z,25.80
2018-09-14T10:13:50.940Z,25.70
2018-09-14T10:16:19.423Z,25.70
2018-09-14T10:18:47.887Z,25.00
2018-09-14T10:21:16.449Z,24.20
2018-09-14T10:23:44.850Z,24.50
2018-09-14T10:26:14.752Z,25.10
2018-09-14T10:28:43.274Z,25.10
2018-09-14T10:31:12.176Z,24.80
2018-09-14T10:33:40.687Z,24.00
2018-09-14T10:36:09.285Z,23.60
2018-09-14T10:38:38.275Z,24.20
2018-09-14T10:41:07.626Z,24.50
2018-09-14T10:43:36.307Z,24.10
2018-09-14T10:46:05.535Z,24.40
2018-09-14T10:48:34.032Z,24.50
2018-09-14T10:51:02.566Z,24.70
2018-09-14T10:53:31.115Z,25.10
2018-09-14T10:55:59.609Z,24.90
2018-09-14T10:58:32.172Z,24.60
2018-09-14T11:01:00.967Z,24.10
2018-09-14T11:03:30.866Z,23.70
2018-09-14T11:05:59.473Z,24.00
2018-09-14T11:08:29.120Z,23.80
2018-09-14T11:10:57.545Z,23.30
2018-09-14T11:13:26.006Z,22.90
2018-09-14T11:15:54.607Z,22.50
2018-09-14T11:18:23.157Z,21.90
2018-09-14T11:20:51.838Z,21.70
2018-09-14T11:23:23.379Z,22.10
2018-09-14T11:25:51.678Z,22.70
2018-09-14T11:28:20.172Z,22.70
2018-09-14T11:30:49.116Z,22.90
2018-09-14T11:33:17.570Z,22.60
2018-09-14T11:35:46.262Z,22.60
2018-09-14T11:38:14.866Z,23.00
2018-09-14T11:40:43.210Z,23.30
2018-09-14T11:43:11.769Z,23.10
2018-09-14T11:45:40.787Z,22.80
2018-09-14T11:48:09.514Z,22.40
2018-09-14T11:50:39.192Z,23.00
2018-09-14T11:53:09.086Z,23.50
2018-09-14T11:55:37.678Z,23.30
2018-09-14T11:58:06.320Z,23.30
2018-09-14T12:00:34.836Z,23.10
2018-09-14T12:03:03.339Z,23.60
2018-09-14T12:05:31.967Z,23.80
2018-09-14T12:08:00.744Z,24.60
2018-09-14T12:10:29.187Z,25.20
2018-09-14T12:12:57.959Z,25.30
2018-09-14T12:15:26.415Z,25.50
2018-09-14T12:17:55.222Z,25.80
2018-09-14T12:20:23.693Z,25.80
2018-09-14T12:22:52.353Z,25.50
2018-09-14T12:25:20.892Z,25.40
2018-09-14T12:27:50.616Z,25.00
2018-09-14T12:30:19.316Z,25.80
2018-09-14T12:32:47.999Z,26.40
2018-09-14T12:35:16.551Z,25.50
2018-09-14T12:37:45.192Z,25.50
2018-09-14T12:40:13.620Z,25.10
2018-09-14T12:42:42.636Z,23.90
2018-09-14T12:45:11.177Z,23.10
2018-09-14T12:47:39.765Z,23.00
2018-09-14T12:50:08.639Z,22.90
2018-09-14T12:52:37.071Z,23.20
2018-09-14T12:55:05.646Z,23.60
2018-09-14T12:57:34.162Z,23.90
2018-09-14T13:00:02.776Z,24.20
2018-09-14T13:02:33.521Z,23.50
2018-09-14T13:05:02.783Z,22.70
2018-09-14T13:07:31.401Z,22.40
2018-09-14T13:10:00.103Z,22.90
2018-09-14T13:12:28.796Z,24.00
2018-09-14T13:14:57.771Z,24.50
2018-09-14T13:17:28.102Z,24.40
2018-09-14T13:19:56.722Z,23.80
2018-09-14T13:22:25.359Z,24.20
2018-09-14T13:24:54.244Z,24.40
2018-09-14T13:27:22.792Z,24.30
2018-09-14T13:29:51.335Z,23.90
2018-09-14T13:32:21.642Z,23.50
2018-09-14T13:34:50.820Z,23.20
2018-09-14T13:37:20.062Z,23.10
2018-09-14T13:39:49.198Z,22.60
2018-09-14T13:42:18.982Z,22.20
2018-09-14T13:44:47.996Z,21.90
2018-09-14T13:47:16.580Z,22.30
2018-09-14T13:49:45.437Z,23.10
2018-09-14T13:52:14.616Z,23.90
2018-09-14T13:54:43.293Z,24.70
2018-09-14T13:57:11.834Z,24.10
2018-09-14T13:59:41.061Z,22.90
2018-09-14T14:02:09.766Z,23.00
2018-09-14T14:04:38.804Z,23.70
2018-09-14T14:07:07.642Z,24.50
2018-09-14T14:09:36.237Z,25.00
2018-09-14T14:12:04.815Z,24.70
2018-09-14T14:14:33.699Z,24.30
2018-09-14T14:17:02.275Z,23.90
2018-09-14T14:19:30.902Z,23.30
2018-09-14T14:22:01.047Z,22.90
2018-09-14T14:24:29.463Z,22.70
2018-09-14T14:26:57.896Z,22.30
2018-09-14T14:29:26.907Z,21.90
2018-09-14T14:31:56.019Z,21.80
2018-09-14T14:34:25.814Z,21.50
2018-09-14T14:36:54.392Z,21.40
2018-09-14T14:39:23.373Z,21.30
2018-09-14T14:41:52.302Z,21.10
2018-09-14T14:44:20.779Z,21.00
2018-09-14T14:46:49.381Z,20.90
2018-09-14T14:49:18.879Z,21.00
2018-09-14T14:51:47.412Z,21.10
2018-09-14T14:54:15.852Z,21.00
2018-09-14T14:56:44.279Z,20.90
2018-09-14T14:59:12.942Z,20.80
2018-09-14T15:01:41.436Z,20.70
2018-09-14T15:04:09.827Z,20.60
2018-09-14T15:06:38.457Z,20.60
2018-09-14T15:09:09.157Z,20.60
2018-09-14T15:11:37.555Z,20.60
2018-09-14T15:14:06.259Z,20.50
2018-09-14T15:16:34.731Z,20.30
2018-09-14T15:19:03.654Z,20.20
2018-09-14T15:21:32.921Z,20.10
2018-09-14T15:24:01.458Z,19.90
2018-09-14T15:26:29.924Z,19.90
2018-09-14T15:28:59.496Z,20.00
2018-09-14T15:31:28.718Z,20.10
2018-09-14T15:33:57.295Z,20.20
2018-09-14T15:36:25.987Z,20.20
2018-09-14T15:38:54.805Z,20.20
2018-09-14T15:41:23.290Z,20.10
2018-09-14T15:43:53.455Z,20.00
2018-09-14T15:46:22.047Z,19.80
2018-09-14T15:48:51.218Z,19.70
2018-09-14T15:51:20.485Z,19.60
2018-09-14T15:53:49.496Z,19.60
2018-09-14T15:56:18.031Z,19.60
2018-09-14T15:58:46.932Z,19.60
2018-09-14T16:01:15.633Z,19.60
2018-09-14T16:03:44.258Z,19.50
2018-09-14T16:06:12.679Z,19.50
2018-09-14T16:08:41.969Z,19.50
2018-09-14T16:11:10.434Z,19.50
2018-09-14T16:13:39.019Z,19.50
2018-09-14T16:16:07.857Z,19.40
2018-09-14T16:18:36.252Z,19.40
2018-09-14T16:21:05.076Z,19.40
2018-09-14T16:23:34.884Z,19.30
2018-09-14T16:26:04.091Z,19.30
2018-09-14T16:28:32.698Z,19.20
2018-09-14T16:31:05.135Z,19.10
2018-09-14T16:33:33.999Z,19.00
2018-09-14T16:36:03.241Z,18.90
2018-09-14T16:38:31.875Z,18.70
2018-09-14T16:41:01.293Z,18.60
2018-09-14T16:43:30.078Z,18.50
2018-09-14T16:45:58.747Z,18.40
2018-09-14T16:48:27.310Z,18.30
2018-09-14T16:50:55.948Z,18.20
2018-09-14T16:53:24.959Z,18.20
2018-09-14T16:55:54.136Z,18.10
2018-09-14T16:58:24.085Z,18.10
2018-09-14T17:00:52.687Z,18.00
2018-09-14T17:03:21.243Z,18.00
2018-09-14T17:05:51.018Z,17.90
2018-09-14T17:08:20.491Z,17.80
2018-09-14T17:10:49.075Z,17.80
2018-09-14T17:13:17.874Z,17.80
2018-09-14T17:15:46.658Z,17.70
2018-09-14T17:18:15.279Z,17.50
2018-09-14T17:21:16.001Z,17.50
2018-09-14T17:23:44.501Z,17.40
2018-09-14T17:26:13.193Z,17.40
2018-09-14T17:28:41.900Z,17.30
2018-09-14T17:31:11.578Z,17.30
2018-09-14T17:33:40.054Z,17.30
2018-09-14T17:36:08.700Z,17.20
2018-09-14T17:38:45.430Z,17.20
2018-09-14T17:41:16.568Z,17.20
2018-09-14T17:43:46.750Z,17.10
2018-09-14T17:46:17.628Z,17.00
2018-09-14T17:48:50.005Z,16.80
2018-09-14T17:51:19.540Z,16.80
2018-09-14T17:53:51.100Z,16.70
2018-09-14T17:56:21.980Z,16.60
2018-09-14T17:58:56.021Z,16.50
2018-09-14T18:01:30.919Z,16.50
2018-09-14T18:04:01.390Z,16.50
2018-09-14T18:06:33.552Z,16.50
2018-09-14T18:09:18.682Z,16.50
2018-09-14T18:11:53.664Z,16.40
2018-09-14T18:14:24.445Z,16.30
2018-09-14T18:16:52.989Z,16.20
2018-09-14T18:19:21.569Z,16.00
2018-09-14T18:21:52.607Z,15.80
2018-09-14T18:24:22.972Z,15.60
2018-09-14T18:26:52.496Z,15.40
2018-09-14T18:29:22.368Z,15.20
2018-09-14T18:31:52.994Z,15.00
2018-09-14T18:34:22.497Z,14.90
2018-09-14T18:36:52.724Z,14.80
2018-09-14T18:39:22.366Z,14.80
2018-09-14T18:41:51.771Z,14.70
2018-09-14T18:44:21.480Z,14.50
2018-09-14T18:46:50.979Z,14.40
2018-09-14T18:49:20.516Z,14.40
2018-09-14T18:51:49.596Z,14.30
2018-09-14T18:54:20.440Z,14.20
2018-09-14T18:56:51.159Z,14.20
2018-09-14T18:59:20.110Z,14.10
2018-09-14T19:01:51.362Z,14.10
2018-09-14T19:04:20.801Z,14.10
2018-09-14T19:06:50.811Z,14.10
2018-09-14T19:09:22.358Z,14.00
2018-09-14T19:11:51.932Z,14.00
2018-09-14T19:14:21.863Z,14.00
2018-09-14T19:16:52.481Z,13.90
2018-09-14T19:19:22.275Z,13.90
2018-09-14T19:21:52.735Z,13.80
2018-09-14T19:24:23.353Z,13.90
2018-09-14T19:26:52.946Z,13.90
2018-09-14T19:29:23.626Z,13.90
2018-09-14T19:31:55.594Z,14.00
2018-09-14T19:34:26.741Z,14.00
2018-09-14T19:36:55.890Z,13.90
2018-09-14T19:39:27.382Z,13.80
2018-09-14T19:41:57.912Z,13.70
2018-09-14T19:44:28.052Z,13.80
2018-09-14T19:46:58.354Z,13.90
2018-09-14T19:49:28.390Z,14.00
2018-09-14T19:51:59.467Z,14.10
2018-09-14T19:54:29.294Z,14.10
2018-09-14T19:56:59.199Z,14.10
2018-09-14T19:59:28.493Z,14.10
2018-09-14T20:01:59.255Z,14.10
2018-09-14T20:04:29.666Z,13.90
2018-09-14T20:06:58.336Z,13.90
2018-09-14T20:09:27.561Z,13.80
2018-09-14T20:11:56.083Z,13.70
2018-09-14T20:14:24.926Z,13.70
2018-09-14T20:16:54.624Z,13.70
2018-09-14T20:19:23.218Z,13.70
2018-09-14T20:21:51.792Z,13.80
2018-09-14T20:24:20.332Z,13.70
2018-09-14T20:26:49.291Z,13.70
2018-09-14T20:29:18.786Z,13.70
2018-09-14T20:31:49.445Z,13.60
2018-09-14T20:34:18.578Z,13.50
2018-09-14T20:36:47.610Z,13.50
2018-09-14T20:39:16.635Z,13.60
2018-09-14T20:41:45.178Z,13.60
2018-09-14T20:44:13.997Z,13.60
2018-09-14T20:46:42.555Z,13.60
2018-09-14T20:49:11.149Z,13.50
2018-09-14T20:51:40.499Z,13.50
2018-09-14T20:54:09.379Z,13.40
2018-09-14T20:56:37.922Z,13.40
2018-09-14T20:59:06.777Z,13.40
2018-09-14T21:01:35.667Z,13.40
2018-09-14T21:04:06.214Z,13.40
2018-09-14T21:06:34.692Z,13.40
2018-09-14T21:09:05.607Z,13.30
2018-09-14T21:11:35.128Z,13.40
2018-09-14T21:14:03.548Z,13.50
2018-09-14T21:16:32.042Z,13.60
2018-09-14T21:19:01.711Z,13.60
2018-09-14T21:21:30.597Z,13.60
2018-09-14T21:23:59.145Z,13.70
2018-09-14T21:26:27.937Z,13.70
2018-09-14T21:28:56.722Z,13.70
2018-09-14T21:31:28.252Z,13.70
2018-09-14T21:33:57.127Z,13.70
2018-09-14T21:36:26.693Z,13.70
2018-09-14T21:38:55.348Z,13.80
2018-09-14T21:41:24.126Z,13.80
2018-09-14T21:43:52.673Z,13.80
2018-09-14T21:46:22.325Z,13.90
2018-09-14T21:48:51.225Z,13.80
2018-09-14T21:51:24.057Z,13.80
2018-09-14T21:53:57.153Z,13.80
2018-09-14T21:56:27.141Z,13.80
2018-09-14T21:58:56.402Z,13.70
2018-09-14T22:01:29.459Z,13.70
2018-09-14T22:03:59.162Z,13.70
2018-09-14T22:06:28.153Z,13.60
2018-09-14T22:08:56.990Z,13.70
2018-09-14T22:11:25.668Z,13.80
2018-09-14T22:13:54.456Z,13.80
2018-09-14T22:16:22.980Z,13.90
2018-09-14T22:18:51.484Z,13.90
2018-09-14T22:21:19.957Z,13.90
2018-09-14T22:23:49.957Z,13.90
2018-09-14T22:26:18.464Z,13.90
2018-09-14T22:28:46.990Z,13.90
2018-09-14T22:31:16.094Z,13.90
2018-09-14T22:33:44.903Z,13.90
2018-09-14T22:36:13.450Z,13.90
2018-09-14T22:38:42.063Z,13.90
2018-09-14T22:41:10.554Z,13.90
2018-09-14T22:43:39.101Z,13.90
2018-09-14T22:46:07.880Z,13.90
2018-09-14T22:48:37.039Z,13.80
2018-09-14T22:51:05.466Z,13.80
2018-09-14T22:53:33.967Z,13.70
2018-09-14T22:56:03.909Z,13.60
2018-09-14T22:58:33.294Z,13.60
2018-09-14T23:01:05.985Z,13.50
2018-09-14T23:03:34.558Z,13.40
2018-09-14T23:06:03.049Z,13.30
2018-09-14T23:08:31.649Z,13.20
2018-09-14T23:11:00.652Z,13.10
2018-09-14T23:13:29.277Z,13.00
2018-09-14T23:15:59.637Z,13.00
2018-09-14T23:18:29.037Z,13.00
2018-09-14T23:20:58.406Z,12.90
2018-09-14T23:23:27.178Z,12.90
2018-09-14T23:25:58.086Z,12.90
2018-09-14T23:28:26.587Z,12.80
2018-09-14T23:30:56.210Z,12.70
2018-09-14T23:33:24.788Z,12.60
2018-09-14T23:35:53.415Z,12.50
2018-09-14T23:38:23.249Z,12.40
2018-09-14T23:40:51.797Z,12.40
2018-09-14T23:43:20.166Z,12.40
2018-09-14T23:45:48.621Z,12.40
2018-09-14T23:48:17.135Z,12.40
2018-09-14T23:50:45.576Z,12.30
2018-09-14T23:53:14.466Z,12.30
2018-09-14T23:55:42.969Z,12.20
2018-09-14T23:58:11.463Z,12.10
